Time;durP1;ratioP1;P1;durP2;ratioP2;P2;SDS_P1;SDS_P2;PMS_P1;PMS_P2;Temp;Humidity;BMP_temperature;BMP_pressure;BME280_temperature;BME280_humidity;BME280_pressure;Samples;Min_cycle;Max_cycle;Signal;HPM_P1;HPM_P2
2023/03/25 00:02:19;;;;;;;18.65;3.75;;;;;;;;;;5032366;28;20029;-65
2023/03/25 00:04:45;;;;;;;15.63;3.47;;;;;;;;;;5032492;28;20017;-63
2023/03/25 00:07:11;;;;;;;24.95;3.78;;;;;;;;;;5032388;28;20017;-63
2023/03/25 00:09:37;;;;;;;27.65;4.22;;;;;;;;;;5039651;28;20035;-65
2023/03/25 00:12:03;;;;;;;32.70;3.67;;;;;;;;;;5051190;28;20025;-63
2023/03/25 00:14:31;;;;;;;26.25;3.40;;;;;;;;;;5052507;28;20025;-64
2023/03/25 00:17:00;;;;;;;17.88;3.75;;;;;;;;;;5052203;28;20029;-63
2023/03/25 00:19:26;;;;;;;17.00;2.53;;;;;;;;;;5052009;28;20055;-63
2023/03/25 00:21:53;;;;;;;18.67;2.95;;;;;;;;;;5052138;28;20039;-63
2023/03/25 00:24:19;;;;;;;29.88;3.53;;;;;;;;;;5050715;28;20047;-64
2023/03/25 00:26:47;;;;;;;19.98;3.58;;;;;;;;;;5052201;28;20029;-63
2023/03/25 00:29:13;;;;;;;21.15;3.35;;;;;;;;;;5051856;28;20025;-63
2023/03/25 00:31:40;;;;;;;22.02;3.28;;;;;;;;;;5051838;28;20520;-64
2023/03/25 00:34:06;;;;;;;33.85;4.00;;;;;;;;;;5052099;28;20104;-63
2023/03/25 00:36:32;;;;;;;33.67;4.50;;;;;;;;;;5051814;28;20036;-64
2023/03/25 00:38:58;;;;;;;34.33;5.97;;;;;;;;;;5051922;28;20108;-62
2023/03/25 00:41:26;;;;;;;22.15;4.20;;;;;;;;;;5050520;28;20037;-64
2023/03/25 00:43:53;;;;;;;23.20;3.78;;;;;;;;;;5051751;28;20025;-63
2023/03/25 00:46:19;;;;;;;26.38;3.25;;;;;;;;;;5051641;28;20037;-63
2023/03/25 00:48:45;;;;;;;32.33;4.13;;;;;;;;;;5051666;28;20477;-64
2023/03/25 00:51:13;;;;;;;27.95;4.72;;;;;;;;;;5051695;28;20040;-63
2023/03/25 00:53:39;;;;;;;26.35;3.35;;;;;;;;;;5051376;28;20029;-63
2023/03/25 00:56:05;;;;;;;24.63;4.00;;;;;;;;;;5051477;28;20023;-63
2023/03/25 00:58:31;;;;;;;27.42;3.58;;;;;;;;;;5049558;28;20025;-63
2023/03/25 01:00:58;;;;;;;21.58;3.65;;;;;;;;;;5051427;28;20041;-63
2023/03/25 01:03:27;;;;;;;31.48;4.18;;;;;;;;;;5051505;28;20071;-63
2023/03/25 01:05:54;;;;;;;29.42;4.22;;;;;;;;;;5051341;28;20032;-64
2023/03/25 01:08:24;;;;;;;24.17;3.58;;;;;;;;;;5050045;28;20021;-63
2023/03/25 01:10:53;;;;;;;22.88;4.10;;;;;;;;;;5051310;28;20055;-62
2023/03/25 01:13:19;;;;;;;21.20;4.32;;;;;;;;;;5050741;28;20029;-63
2023/03/25 01:15:46;;;;;;;22.73;4.32;;;;;;;;;;5050027;28;20489;-64
2023/03/25 01:18:12;;;;;;;28.33;4.50;;;;;;;;;;5051011;28;20051;-63
2023/03/25 01:20:39;;;;;;;36.33;6.38;;;;;;;;;;5051040;28;20535;-63
2023/03/25 01:23:05;;;;;;;23.42;3.70;;;;;;;;;;5051062;28;20029;-64
2023/03/25 01:25:32;;;;;;;31.30;5.20;;;;;;;;;;5050919;28;20154;-64
2023/03/25 01:27:58;;;;;;;28.67;2.72;;;;;;;;;;5051129;28;20035;-64
2023/03/25 01:30:24;;;;;;;26.77;3.55;;;;;;;;;;5041639;28;20101;-64
2023/03/25 01:32:50;;;;;;;25.15;3.83;;;;;;;;;;5031000;28;20079;-64
2023/03/25 01:35:16;;;;;;;17.38;4.43;;;;;;;;;;5031200;28;20044;-62
2023/03/25 01:37:43;;;;;;;21.30;3.63;;;;;;;;;;5031061;28;20021;-62
2023/03/25 01:40:10;;;;;;;23.40;3.22;;;;;;;;;;5030948;28;20034;-63
2023/03/25 01:42:36;;;;;;;27.95;4.57;;;;;;;;;;5031118;28;20026;-63
2023/03/25 01:45:34;;;;;;;21.13;3.47;;;;;;;;;;5031102;28;20021;-64
2023/03/25 01:48:09;;;;;;;26.13;3.70;;;;;;;;;;5027252;28;20048;-63
2023/03/25 01:50:36;;;;;;;19.02;3.70;;;;;;;;;;5050766;28;20048;-63
2023/03/25 01:53:04;;;;;;;27.48;4.53;;;;;;;;;;5049496;28;20083;-64
2023/03/25 01:55:33;;;;;;;30.52;4.88;;;;;;;;;;5050791;28;20024;-63
2023/03/25 01:58:01;;;;;;;20.10;3.90;;;;;;;;;;5050641;28;20021;-64
2023/03/25 02:00:27;;;;;;;15.70;3.15;;;;;;;;;;5050851;28;20124;-63
2023/03/25 02:02:57;;;;;;;28.60;3.33;;;;;;;;;;5049748;28;20036;-64
2023/03/25 02:05:44;;;;;;;22.27;3.70;;;;;;;;;;5050742;28;20021;-65
2023/03/25 02:08:10;;;;;;;16.90;3.22;;;;;;;;;;5050686;28;20100;-64
2023/03/25 02:10:37;;;;;;;20.40;4.18;;;;;;;;;;5051049;28;20087;-63
2023/03/25 02:13:03;;;;;;;23.50;3.28;;;;;;;;;;5050822;28;20021;-63
2023/03/25 02:15:33;;;;;;;28.65;3.08;;;;;;;;;;5050528;28;20112;-64
2023/03/25 02:18:10;;;;;;;20.30;3.25;;;;;;;;;;5050485;28;20103;-63
2023/03/25 02:20:56;;;;;;;14.48;2.92;;;;;;;;;;5049340;28;20043;-63
2023/03/25 02:23:28;;;;;;;20.65;3.92;;;;;;;;;;5050697;28;20100;-63
2023/03/25 02:26:00;;;;;;;30.90;5.18;;;;;;;;;;5054231;28;20025;-64
2023/03/25 02:28:46;;;;;;;26.88;3.08;;;;;;;;;;5054178;28;20032;-63
2023/03/25 02:31:28;;;;;;;24.40;3.60;;;;;;;;;;5053970;28;20110;-64
2023/03/25 02:34:13;;;;;;;29.30;3.93;;;;;;;;;;5054236;28;20111;-63
2023/03/25 02:36:51;;;;;;;24.90;4.63;;;;;;;;;;5053478;28;20025;-63
2023/03/25 02:39:44;;;;;;;24.33;3.17;;;;;;;;;;5034415;28;20025;-63
2023/03/25 02:42:29;;;;;;;28.38;5.18;;;;;;;;;;5032194;28;20045;-63
2023/03/25 02:45:13;;;;;;;14.75;2.67;;;;;;;;;;5034105;28;20029;-63
2023/03/25 02:47:43;;;;;;;16.90;2.72;;;;;;;;;;5033882;28;20025;-64
2023/03/25 02:50:34;;;;;;;24.17;3.13;;;;;;;;;;5034153;28;20025;-62
2023/03/25 02:53:05;;;;;;;15.07;2.75;;;;;;;;;;5033572;28;20581;-63
2023/03/25 02:55:32;;;;;;;31.13;4.57;;;;;;;;;;5033995;28;20051;-64
2023/03/25 02:58:00;;;;;;;21.40;3.45;;;;;;;;;;5033884;28;20116;-64
2023/03/25 03:00:28;;;;;;;29.42;4.68;;;;;;;;;;5033775;28;20033;-63
2023/03/25 03:03:00;;;;;;;19.42;3.60;;;;;;;;;;5033518;28;20017;-64
2023/03/25 03:05:33;;;;;;;23.80;3.20;;;;;;;;;;5033766;28;20436;-64
2023/03/25 03:08:02;;;;;;;19.67;3.55;;;;;;;;;;5033664;28;20022;-63
2023/03/25 03:10:41;;;;;;;22.85;3.90;;;;;;;;;;5039676;28;20595;-64
2023/03/25 03:13:07;;;;;;;30.13;4.53;;;;;;;;;;5053322;28;20025;-64
2023/03/25 03:15:33;;;;;;;23.27;3.75;;;;;;;;;;5053473;28;20025;-64
2023/03/25 03:18:06;;;;;;;31.73;3.97;;;;;;;;;;5053104;28;20424;-63
2023/03/25 03:20:38;;;;;;;12.63;2.88;;;;;;;;;;5053517;28;20041;-64
2023/03/25 03:23:04;;;;;;;;;;;;;;;;;;5053862;28;20104;-63
2023/03/25 03:25:47;;;;;;;15.77;3.50;;;;;;;;;;5053439;28;19905;-63
2023/03/25 03:28:26;;;;;;;13.20;3.20;;;;;;;;;;5052120;28;20032;-63
2023/03/25 03:30:53;;;;;;;30.90;4.35;;;;;;;;;;5053091;28;20024;-64
2023/03/25 03:33:35;;;;;;;14.82;2.78;;;;;;;;;;5053087;28;20033;-63
2023/03/25 03:36:05;;;;;;;22.88;3.50;;;;;;;;;;5052323;28;20603;-63
2023/03/25 03:38:35;;;;;;;19.67;3.67;;;;;;;;;;5051804;28;20108;-62
2023/03/25 03:41:04;;;;;;;21.55;3.92;;;;;;;;;;5051455;28;20029;-63
2023/03/25 03:43:32;;;;;;;14.50;3.38;;;;;;;;;;5052763;28;20017;-63
2023/03/25 03:46:01;;;;;;;25.27;3.35;;;;;;;;;;5052831;28;20500;-64
2023/03/25 03:48:32;;;;;;;31.33;3.78;;;;;;;;;;5052695;28;20120;-63
2023/03/25 03:51:02;;;;;;;28.20;5.18;;;;;;;;;;5052744;28;20025;-63
2023/03/25 03:53:28;;;;;;;24.70;4.60;;;;;;;;;;5051487;28;20036;-63
2023/03/25 03:56:15;;;;;;;35.40;5.22;;;;;;;;;;5052752;28;20017;-63
2023/03/25 03:58:42;;;;;;;20.17;3.95;;;;;;;;;;5051294;28;20035;-64
2023/03/25 04:01:15;;;;;;;25.73;4.20;;;;;;;;;;5052476;28;20120;-63
2023/03/25 04:03:45;;;;;;;33.97;5.95;;;;;;;;;;5052576;28;20495;-63
2023/03/25 04:06:20;;;;;;;35.88;5.57;;;;;;;;;;5052509;28;20143;-64
2023/03/25 04:08:57;;;;;;;26.92;4.97;;;;;;;;;;5052464;28;20021;-63
2023/03/25 04:11:24;;;;;;;24.08;4.78;;;;;;;;;;5052464;28;20538;-63
2023/03/25 04:13:51;;;;;;;24.95;3.75;;;;;;;;;;5050868;28;20516;-64
2023/03/25 04:16:17;;;;;;;25.10;4.18;;;;;;;;;;5052039;28;20043;-63
2023/03/25 04:18:46;;;;;;;41.58;5.65;;;;;;;;;;5052165;28;20138;-63
2023/03/25 04:21:14;;;;;;;32.33;4.78;;;;;;;;;;5052148;28;20111;-63
2023/03/25 04:23:40;;;;;;;22.67;4.43;;;;;;;;;;5051933;28;20045;-63
2023/03/25 04:26:06;;;;;;;26.05;4.90;;;;;;;;;;5052195;28;20138;-64
2023/03/25 04:28:32;;;;;;;26.33;5.38;;;;;;;;;;5050741;28;20028;-63
2023/03/25 04:30:59;;;;;;;26.23;4.93;;;;;;;;;;5051994;28;20385;-64
2023/03/25 04:33:25;;;;;;;23.42;4.65;;;;;;;;;;5051910;28;20514;-63
2023/03/25 04:35:52;;;;;;;38.08;5.00;;;;;;;;;;5051864;28;20100;-64
2023/03/25 04:38:18;;;;;;;41.03;5.82;;;;;;;;;;5051698;28;20079;-62
2023/03/25 04:40:48;;;;;;;20.13;4.70;;;;;;;;;;5051820;28;20374;-64
2023/03/25 04:43:14;;;;;;;36.63;4.05;;;;;;;;;;5051655;28;20021;-64
2023/03/25 04:45:52;;;;;;;34.13;5.78;;;;;;;;;;5050445;28;20052;-63
2023/03/25 04:48:22;;;;;;;26.60;4.15;;;;;;;;;;5049538;28;20450;-64
2023/03/25 04:50:50;;;;;;;25.77;4.55;;;;;;;;;;5051677;28;20553;-63
2023/03/25 04:53:16;;;;;;;20.50;4.53;;;;;;;;;;5051472;28;20024;-65
2023/03/25 04:55:46;;;;;;;23.65;4.10;;;;;;;;;;5051522;28;20053;-63
2023/03/25 04:58:14;;;;;;;26.30;4.35;;;;;;;;;;5051577;28;20021;-64
2023/03/25 05:00:41;;;;;;;20.05;4.13;;;;;;;;;;5051415;28;20068;-64
2023/03/25 05:03:08;;;;;;;24.55;5.30;;;;;;;;;;5050289;28;20029;-64
2023/03/25 05:05:35;;;;;;;28.38;4.78;;;;;;;;;;5051412;28;20040;-63
2023/03/25 05:08:02;;;;;;;36.35;4.80;;;;;;;;;;5051458;28;20021;-63
2023/03/25 05:10:31;;;;;;;24.67;4.10;;;;;;;;;;5051203;28;20032;-63
2023/03/25 05:13:04;;;;;;;20.27;3.58;;;;;;;;;;5051241;28;20021;-62
2023/03/25 05:15:34;;;;;;;36.83;5.22;;;;;;;;;;5051244;28;20478;-63
2023/03/25 05:18:00;;;;;;;27.73;4.65;;;;;;;;;;5049844;28;20108;-63
2023/03/25 05:20:27;;;;;;;23.83;4.97;;;;;;;;;;5051131;28;20178;-63
2023/03/25 05:22:56;;;;;;;32.60;6.95;;;;;;;;;;5051222;28;20432;-63
2023/03/25 05:25:22;;;;;;;16.67;3.97;;;;;;;;;;5051154;28;20026;-64
2023/03/25 05:27:48;;;;;;;22.60;4.90;;;;;;;;;;5051046;28;20031;-63
2023/03/25 05:30:14;;;;;;;44.75;5.55;;;;;;;;;;5049846;28;20033;-64
2023/03/25 05:32:44;;;;;;;20.42;3.92;;;;;;;;;;5051105;28;20511;-63
2023/03/25 05:35:10;;;;;;;28.30;4.35;;;;;;;;;;5049865;28;20021;-64
2023/03/25 05:37:36;;;;;;;33.20;4.90;;;;;;;;;;5050941;28;20025;-63
2023/03/25 05:40:04;;;;;;;31.95;5.85;;;;;;;;;;5050821;28;20029;-64
2023/03/25 05:42:30;;;;;;;29.30;4.80;;;;;;;;;;5050871;28;20385;-64
2023/03/25 05:44:56;;;;;;;45.33;5.30;;;;;;;;;;5050987;28;20021;-63
2023/03/25 05:47:23;;;;;;;31.08;4.65;;;;;;;;;;5050862;28;20074;-63
2023/03/25 05:49:50;;;;;;;32.45;5.82;;;;;;;;;;5050877;28;20032;-64
2023/03/25 05:52:17;;;;;;;25.65;4.65;;;;;;;;;;5049543;28;20033;-64
2023/03/25 05:54:50;;;;;;;24.15;5.25;;;;;;;;;;5050969;28;20025;-63
2023/03/25 05:57:16;;;;;;;45.13;5.40;;;;;;;;;;5050736;28;20083;-64
2023/03/25 05:59:42;;;;;;;30.17;4.68;;;;;;;;;;5053107;28;20021;-63
2023/03/25 06:02:13;;;;;;;22.35;4.30;;;;;;;;;;5054590;28;20033;-63
2023/03/25 06:04:42;;;;;;;33.35;4.88;;;;;;;;;;5054707;28;20147;-64
2023/03/25 06:07:18;;;;;;;23.58;3.75;;;;;;;;;;5054817;28;20029;-63
2023/03/25 06:09:44;;;;;;;27.48;3.92;;;;;;;;;;5054543;28;20024;-63
2023/03/25 06:12:12;;;;;;;26.17;5.65;;;;;;;;;;5054640;28;20032;-63
2023/03/25 06:14:41;;;;;;;39.70;5.35;;;;;;;;;;5054590;28;20367;-64
2023/03/25 06:17:09;;;;;;;21.45;4.03;;;;;;;;;;5048659;28;20330;-63
2023/03/25 06:19:37;;;;;;;30.98;5.03;;;;;;;;;;5052314;28;20063;-63
2023/03/25 06:22:05;;;;;;;25.58;4.22;;;;;;;;;;5049066;28;20118;-62
2023/03/25 06:24:31;;;;;;;28.77;4.75;;;;;;;;;;5051466;28;20025;-64
2023/03/25 06:26:57;;;;;;;18.48;4.68;;;;;;;;;;5053918;28;20025;-64
2023/03/25 06:29:23;;;;;;;23.35;4.53;;;;;;;;;;5054286;28;20052;-64
2023/03/25 06:31:50;;;;;;;24.48;4.38;;;;;;;;;;5052705;28;20469;-63
2023/03/25 06:34:16;;;;;;;26.75;4.65;;;;;;;;;;5050721;28;20025;-64
2023/03/25 06:36:42;;;;;;;43.10;5.32;;;;;;;;;;5037096;28;20525;-64
2023/03/25 06:39:09;;;;;;;25.13;4.47;;;;;;;;;;5033996;28;20495;-63
2023/03/25 06:41:36;;;;;;;22.75;5.18;;;;;;;;;;5037016;28;20044;-64
2023/03/25 06:44:03;;;;;;;26.50;5.55;;;;;;;;;;5063332;28;20029;-65
2023/03/25 06:46:30;;;;;;;36.08;5.55;;;;;;;;;;5072623;28;20074;-64
2023/03/25 06:48:56;;;;;;;27.00;4.47;;;;;;;;;;5052748;28;20048;-63
2023/03/25 06:51:22;;;;;;;31.42;4.47;;;;;;;;;;5045414;28;20108;-64
2023/03/25 06:53:48;;;;;;;33.35;5.35;;;;;;;;;;5038165;28;20036;-65
2023/03/25 06:56:14;;;;;;;22.98;4.03;;;;;;;;;;5033232;28;20033;-64
2023/03/25 06:58:40;;;;;;;26.73;4.55;;;;;;;;;;5037026;28;20029;-63
